ADDS METAR Data INFO
IDs: Format: Raw Decoded Include TAF

Data at: 1415 UTC 12 Dec 2017

K2G4 121410Z AUTO 27009G19KT 2 1/2SM BKN008 OVC013 M01/M02 A2951 RMK AO1
K2G4 121350Z AUTO 27010G15KT 3SM SCT004 OVC013 M01/M03 A2951 RMK AO1
K2G4 121330Z AUTO 26013G23KT 232V302 7SM SCT015 M01/M04 A2950 RMK AO1
K2G4 121310Z AUTO 26011G21KT 10SM BKN021 00/M04 A2950 RMK AO1
K2G4 121250Z AUTO 25016G23KT 10SM BKN021 OVC028 00/M05 A2950 RMK AO1
K2G4 121230Z AUTO 26015G27KT 242V312 10SM BKN025 OVC032 00/M05 A2950 RMK AO1
K2G4 121210Z AUTO 26011G19KT 10SM BKN025 OVC032 00/M04 A2950 RMK AO1
K2G4 121150Z AUTO 25010G16KT 232V302 10SM SCT023 BKN032 00/M04 A2950 RMK AO1
K2G4 121130Z AUTO 26009G21KT 10SM BKN026 00/M04 A2950 RMK AO1
K2G4 121110Z AUTO 27010G22KT 10SM OVC029 00/M04 A2950 RMK AO1
K2G4 121050Z AUTO 27010G16KT 10SM OVC031 01/M04 A2950 RMK AO1
K2G4 121030Z AUTO 26013G23KT 10SM OVC033 01/M04 A2950 RMK AO1
K2G4 121010Z AUTO 26012G21KT 222V282 10SM BKN033 OVC041 01/M04 A2951 RMK AO1
K2G4 120950Z AUTO 25020G28KT 10SM BKN033 OVC041 01/M04 A2952 RMK AO1
K2G4 120930Z AUTO 26015G22KT 10SM OVC033 02/M03 A2952 RMK AO1
K2G4 120910Z AUTO 25015G22KT 10SM BKN033 BKN040 02/M03 A2952 RMK AO1
K2G4 120850Z AUTO 24015G20KT 10SM BKN033 BKN039 BKN060 03/M03 A2952 RMK AO1
K2G4 120830Z AUTO 24010G17KT 10SM SCT012 SCT020 SCT065 02/M02 A2953 RMK AO1
K2G4 120810Z AUTO 23008G25KT 10SM BKN012 BKN020 02/M02 A2954 RMK AO1
K2G4 120750Z AUTO 25014G22KT 10SM CLR 03/M03 A2954 RMK AO1
K2G4 120730Z AUTO 25013G22KT 10SM CLR 03/M03 A2954 RMK AO1
K2G4 120710Z AUTO 23012G22KT 192V252 10SM CLR 04/M03 A2955 RMK AO1
K2G4 120650Z AUTO 22012G22KT 10SM CLR 03/M04 A2956 RMK AO1
K2G4 120630Z AUTO 23009G18KT 10SM CLR 03/M04 A2957 RMK AO1
K2G4 120610Z AUTO 22013G18KT 10SM CLR 03/M04 A2958 RMK AO1
K2G4 120550Z AUTO 21009G14KT 10SM CLR 02/M05 A2959 RMK AO1
K2G4 120530Z AUTO 21008KT 10SM CLR 02/M05 A2960 RMK AO1
K2G4 120510Z AUTO 20008KT 10SM CLR 01/M05 A2961 RMK AO1
K2G4 120450Z AUTO 18008KT 10SM CLR 00/M06 A2963 RMK AO1
K2G4 120430Z AUTO 17009KT 10SM CLR 01/M06 A2963 RMK AO1
K2G4 120410Z AUTO 16008KT 10SM CLR 00/M06 A2964 RMK AO1
K2G4 120350Z AUTO 16008KT 10SM CLR 00/M07 A2966 RMK AO1
K2G4 120330Z AUTO 16007KT 10SM CLR 00/M07 A2967 RMK AO1
K2G4 120310Z AUTO 16007KT 10SM CLR 00/M07 A2968 RMK AO1
K2G4 120250Z AUTO 14008KT 10SM CLR 00/M07 A2968 RMK AO1
K2G4 120230Z AUTO 14007KT 10SM CLR 00/M08 A2969 RMK AO1
K2G4 120210Z AUTO 15007KT 10SM CLR 00/M08 A2970 RMK AO1
K2G4 120150Z AUTO 15008KT 10SM CLR 00/M08 A2970 RMK AO1
K2G4 120130Z AUTO 15008KT 10SM CLR 01/M08 A2971 RMK AO1
K2G4 120110Z AUTO 14007KT 10SM CLR 01/M08 A2971 RMK AO1
K2G4 120050Z AUTO 15008KT 10SM CLR 01/M08 A2972 RMK AO1
K2G4 120030Z AUTO 16008KT 10SM CLR 01/M07 A2972 RMK AO1
K2G4 120010Z AUTO 16010G14KT 10SM CLR 01/M07 A2973 RMK AO1
K2G4 112350Z AUTO 17009KT 10SM SCT046 01/M07 A2974 RMK AO1
K2G4 112330Z AUTO 18010KT 10SM BKN046 01/M07 A2975 RMK AO1
K2G4 112310Z AUTO 17011KT 10SM BKN046 01/M07 A2975 RMK AO1
K2G4 112250Z AUTO 18010KT 10SM SCT048 BKN060 00/M08 A2977 RMK AO1
K2G4 112230Z AUTO 18009KT 10SM SCT060 00/M08 A2977 RMK AO1
K2G4 112210Z AUTO 18008KT 10SM SCT060 00/M08 A2977 RMK AO1
K2G4 112150Z AUTO 18008KT 10SM SCT060 00/M08 A2978 RMK AO1
K2G4 112130Z AUTO 20007KT 10SM CLR 01/M08 A2979 RMK AO1
K2G4 112110Z AUTO 22006KT 10SM CLR 00/M08 A2980 RMK AO1
K2G4 112050Z AUTO 22008KT 10SM CLR 00/M08 A2981 RMK AO1
K2G4 112030Z AUTO 22007KT 10SM CLR 00/M08 A2982 RMK AO1
K2G4 112010Z AUTO 21007KT 10SM SCT065 00/M08 A2981 RMK AO1
K2G4 111950Z AUTO 21007KT 10SM CLR 00/M08 A2982 RMK AO1
K2G4 111930Z AUTO 23006KT 10SM CLR 00/M08 A2984 RMK AO1
K2G4 111910Z AUTO 22007KT 10SM CLR 00/M07 A2985 RMK AO1
K2G4 111850Z AUTO 22007KT 10SM CLR 00/M07 A2987 RMK AO1
K2G4 111830Z AUTO 20008KT 10SM CLR 00/M07 A2986 RMK AO1
K2G4 111810Z AUTO 22010G15KT 10SM CLR 00/M06 A2987 RMK AO1
K2G4 111750Z AUTO 22011G15KT 10SM CLR 00/M07 A2989 RMK AO1
K2G4 111730Z AUTO 22009KT 10SM CLR 00/M06 A2988 RMK AO1
K2G4 111710Z AUTO 22007KT 192V252 10SM CLR 00/M06 A2989 RMK AO1
K2G4 111650Z AUTO 21007KT 182V242 10SM CLR M01/M07 A2989 RMK AO1
K2G4 111630Z AUTO 23007KT 10SM CLR M01/M07 A2989 RMK AO1
K2G4 111610Z AUTO 22007KT 10SM CLR M01/M07 A2990 RMK AO1
K2G4 111550Z AUTO 23005KT 10SM CLR M01/M07 A2992 RMK AO1
K2G4 111530Z AUTO 25006KT 10SM CLR M03/M07 A2992 RMK AO1
K2G4 111510Z AUTO 25006KT 10SM SCT018 M02/M07 A2991 RMK AO1
K2G4 111450Z AUTO 26008KT 222V312 10SM OVC018 M03/M07 A2992 RMK AO1
K2G4 111430Z AUTO 26009KT 10SM OVC018 M03/M08 A2992 RMK AO1
K2G4 111410Z AUTO 28005G14KT 10SM OVC018 M03/M07 A2991 RMK AO1
K2G4 111350Z AUTO 28009KT 10SM OVC020 M04/M08 A2992 RMK AO1
K2G4 111330Z AUTO 27008G16KT 10SM OVC020 M04/M07 A2992 RMK AO1
K2G4 111310Z AUTO 27010G14KT 10SM OVC020 M04/M08 A2992 RMK AO1
K2G4 111250Z AUTO 27009G17KT 252V312 10SM OVC020 M04/M08 A2992 RMK AO1
K2G4 111230Z AUTO 27006G14KT 10SM OVC022 M04/M08 A2990 RMK AO1
K2G4 111210Z AUTO 27009G17KT 10SM OVC022 M04/M08 A2990 RMK AO1
K2G4 111150Z AUTO 27010G19KT 10SM BKN022 M03/M08 A2990 RMK AO1
K2G4 111130Z AUTO 28011G19KT 242V312 10SM BKN024 M03/M08 A2989 RMK AO1
K2G4 111110Z AUTO 28012G20KT 10SM BKN024 M03/M08 A2989 RMK AO1
K2G4 111050Z AUTO 27011G17KT 10SM BKN024 M03/M08 A2989 RMK AO1
K2G4 111030Z AUTO 27008G17KT 10SM BKN022 M03/M08 A2988 RMK AO1
K2G4 111010Z AUTO 27010G16KT 10SM OVC022 M03/M08 A2987 RMK AO1
K2G4 110950Z AUTO 27009G18KT 232V302 10SM OVC022 M03/M08 A2987 RMK AO1
K2G4 110930Z AUTO 27007G18KT 10SM OVC022 M03/M08 A2987 RMK AO1
K2G4 110910Z AUTO 26011G17KT 10SM OVC022 M03/M08 A2987 RMK AO1
K2G4 110850Z AUTO 26009G19KT 10SM OVC022 M03/M08 A2987 RMK AO1
K2G4 110830Z AUTO 25010G15KT 10SM BKN022 M03/M08 A2987 RMK AO1
K2G4 110810Z AUTO 26008G14KT 10SM BKN022 M03/M08 A2987 RMK AO1
K2G4 110750Z AUTO 26011G16KT 10SM BKN022 M03/M08 A2986 RMK AO1
K2G4 110730Z AUTO 25012G18KT 10SM SCT007 BKN022 M03/M08 A2986 RMK AO1
K2G4 110710Z AUTO 27009G16KT 7SM SCT007 BKN011 BKN016 M03/M08 A2986 RMK AO1
K2G4 110650Z AUTO 25010G22KT 222V282 10SM SCT024 M03/M08 A2986 RMK AO1
K2G4 110630Z AUTO 26010G20KT 10SM SCT011 BKN026 BKN033 M04/M08 A2985 RMK AO1
K2G4 110610Z AUTO 26010G20KT 232V292 7SM SCT007 BKN011 OVC028 M04/M07 A2985 RMK AO1
K2G4 110550Z AUTO 26012G23KT 5SM BKN011 BKN017 OVC030 M04/M08 A2985 RMK AO1
K2G4 110530Z AUTO 25010G21KT 10SM SCT010 SCT015 OVC030 M04/M08 A2986 RMK AO1
K2G4 110510Z AUTO 25013G19KT 212V282 5SM OVC010 M04/M08 A2986 RMK AO1
K2G4 110450Z AUTO 25011G21KT 3SM OVC010 M04/M08 A2987 RMK AO1
K2G4 110430Z AUTO 26011G19KT 10SM SCT010 SCT017 BKN038 M03/M10 A2987 RMK AO1
K2G4 110410Z AUTO 25011G21KT 10SM SCT014 BKN040 M03/M10 A2987 RMK AO1
K2G4 110350Z AUTO 26011G19KT 10SM SCT014 SCT042 BKN047 M03/M10 A2988 RMK AO1
K2G4 110330Z AUTO 25012G21KT 10SM SCT042 OVC047 M03/M10 A2988 RMK AO1
K2G4 110310Z AUTO 25015G24KT 10SM OVC047 M03/M10 A2988 RMK AO1
K2G4 110250Z AUTO 24014G25KT 10SM OVC043 M03/M10 A2987 RMK AO1
K2G4 110230Z AUTO 26014G22KT 10SM OVC043 M03/M10 A2987 RMK AO1